sensor_id;sensor_type;location;lat;lon;timestamp;pressure;altitude;pressure_sealevel;temperature;humidity
2785;BME280;57944;48.722;9.316;2023-12-20T00:00:09;98107.81;;;5.77;100.00
2785;BME280;57944;48.722;9.316;2023-12-20T00:02:39;98106.72;;;5.79;100.00
2785;BME280;57944;48.722;9.316;2023-12-20T00:05:14;98102.56;;;5.78;100.00
2785;BME280;57944;48.722;9.316;2023-12-20T00:07:45;98100.03;;;5.78;100.00
2785;BME280;57944;48.722;9.316;2023-12-20T00:10:16;98082.50;;;5.69;100.00
2785;BME280;57944;48.722;9.316;2023-12-20T00:12:49;98082.66;;;5.67;100.00
2785;BME280;57944;48.722;9.316;2023-12-20T00:15:20;98081.88;;;5.67;100.00
2785;BME280;57944;48.722;9.316;2023-12-20T00:17:50;98088.50;;;5.68;100.00
2785;BME280;57944;48.722;9.316;2023-12-20T00:20:21;98085.50;;;5.72;100.00
2785;BME280;57944;48.722;9.316;2023-12-20T00:22:49;98080.91;;;5.76;100.00
2785;BME280;57944;48.722;9.316;2023-12-20T00:25:20;98069.25;;;5.67;100.00
2785;BME280;57944;48.722;9.316;2023-12-20T00:27:53;98055.03;;;5.66;100.00
2785;BME280;57944;48.722;9.316;2023-12-20T00:30:23;98058.66;;;5.63;100.00
2785;BME280;57944;48.722;9.316;2023-12-20T00:32:55;98046.78;;;5.55;100.00
2785;BME280;57944;48.722;9.316;2023-12-20T00:35:25;98055.63;;;5.59;100.00
2785;BME280;57944;48.722;9.316;2023-12-20T00:37:56;98053.75;;;5.62;100.00
2785;BME280;57944;48.722;9.316;2023-12-20T00:40:26;98048.22;;;5.58;100.00
2785;BME280;57944;48.722;9.316;2023-12-20T00:42:59;98052.50;;;5.57;100.00
2785;BME280;57944;48.722;9.316;2023-12-20T00:45:30;98045.06;;;5.48;100.00
2785;BME280;57944;48.722;9.316;2023-12-20T00:48:01;98049.47;;;5.37;100.00
2785;BME280;57944;48.722;9.316;2023-12-20T00:50:31;98057.34;;;5.34;100.00
2785;BME280;57944;48.722;9.316;2023-12-20T00:53:03;98042.50;;;5.31;100.00
2785;BME280;57944;48.722;9.316;2023-12-20T00:55:33;98045.81;;;5.32;100.00
2785;BME280;57944;48.722;9.316;2023-12-20T00:58:06;98042.66;;;5.22;100.00
2785;BME280;57944;48.722;9.316;2023-12-20T01:00:37;98043.28;;;5.15;100.00
2785;BME280;57944;48.722;9.316;2023-12-20T01:03:11;98034.28;;;5.13;100.00
2785;BME280;57944;48.722;9.316;2023-12-20T01:05:43;98043.28;;;5.15;100.00
2785;BME280;57944;48.722;9.316;2023-12-20T01:08:13;98042.78;;;5.12;100.00
2785;BME280;57944;48.722;9.316;2023-12-20T01:10:44;98035.41;;;5.10;100.00
2785;BME280;57944;48.722;9.316;2023-12-20T01:13:17;98048.66;;;5.04;100.00
2785;BME280;57944;48.722;9.316;2023-12-20T01:15:47;98051.97;;;5.05;100.00
2785;BME280;57944;48.722;9.316;2023-12-20T01:18:18;98054.78;;;5.02;100.00
2785;BME280;57944;48.722;9.316;2023-12-20T01:20:49;98057.94;;;5.12;100.00
2785;BME280;57944;48.722;9.316;2023-12-20T01:23:20;98057.78;;;5.05;100.00
2785;BME280;57944;48.722;9.316;2023-12-20T01:25:50;98063.00;;;5.12;100.00
2785;BME280;57944;48.722;9.316;2023-12-20T01:28:24;98057.34;;;5.10;100.00
2785;BME280;57944;48.722;9.316;2023-12-20T01:30:55;98059.69;;;5.11;100.00
2785;BME280;57944;48.722;9.316;2023-12-20T01:33:26;98064.44;;;5.14;100.00
2785;BME280;57944;48.722;9.316;2023-12-20T01:35:56;98060.97;;;5.07;100.00
2785;BME280;57944;48.722;9.316;2023-12-20T01:38:27;98067.28;;;5.11;100.00
2785;BME280;57944;48.722;9.316;2023-12-20T01:40:57;98063.50;;;5.15;100.00
2785;BME280;57944;48.722;9.316;2023-12-20T01:43:31;98071.69;;;5.18;100.00
2785;BME280;57944;48.722;9.316;2023-12-20T01:46:17;98066.66;;;5.18;100.00
2785;BME280;57944;48.722;9.316;2023-12-20T01:48:49;98073.16;;;5.28;100.00
2785;BME280;57944;48.722;9.316;2023-12-20T01:51:21;98070.47;;;5.22;100.00
2785;BME280;57944;48.722;9.316;2023-12-20T01:53:52;98071.38;;;5.21;100.00
2785;BME280;57944;48.722;9.316;2023-12-20T01:56:23;98070.78;;;5.19;100.00
2785;BME280;57944;48.722;9.316;2023-12-20T01:58:57;98070.13;;;5.17;100.00
2785;BME280;57944;48.722;9.316;2023-12-20T02:01:28;98072.31;;;5.11;100.00
2785;BME280;57944;48.722;9.316;2023-12-20T02:04:00;98070.78;;;5.19;100.00
2785;BME280;57944;48.722;9.316;2023-12-20T02:06:31;98062.69;;;5.15;100.00
2785;BME280;57944;48.722;9.316;2023-12-20T02:09:04;98062.88;;;5.13;100.00
2785;BME280;57944;48.722;9.316;2023-12-20T02:11:35;98064.09;;;5.09;100.00
2785;BME280;57944;48.722;9.316;2023-12-20T02:14:06;98057.19;;;5.20;100.00
2785;BME280;57944;48.722;9.316;2023-12-20T02:16:36;98051.03;;;5.14;100.00
2785;BME280;57944;48.722;9.316;2023-12-20T02:19:12;98055.28;;;5.05;100.00
2785;BME280;57944;48.722;9.316;2023-12-20T02:21:46;98053.09;;;5.19;100.00
2785;BME280;57944;48.722;9.316;2023-12-20T02:24:17;98056.38;;;5.11;100.00
2785;BME280;57944;48.722;9.316;2023-12-20T02:26:48;98051.66;;;5.08;100.00
2785;BME280;57944;48.722;9.316;2023-12-20T02:29:18;98053.06;;;5.10;100.00
2785;BME280;57944;48.722;9.316;2023-12-20T02:31:49;98046.28;;;5.11;100.00
2785;BME280;57944;48.722;9.316;2023-12-20T02:34:19;98051.16;;;5.12;100.00
2785;BME280;57944;48.722;9.316;2023-12-20T02:36:52;98051.16;;;5.12;100.00
2785;BME280;57944;48.722;9.316;2023-12-20T02:39:23;98054.97;;;5.17;100.00
2785;BME280;57944;48.722;9.316;2023-12-20T02:41:54;98053.56;;;5.22;100.00
2785;BME280;57944;48.722;9.316;2023-12-20T02:44:24;98061.75;;;5.16;100.00
2785;BME280;57944;48.722;9.316;2023-12-20T02:46:55;98062.72;;;5.23;100.00
2785;BME280;57944;48.722;9.316;2023-12-20T02:49:25;98066.97;;;5.14;100.00
2785;BME280;57944;48.722;9.316;2023-12-20T02:51:58;98059.69;;;5.11;100.00
2785;BME280;57944;48.722;9.316;2023-12-20T02:54:29;98061.88;;;4.98;100.00
2785;BME280;57944;48.722;9.316;2023-12-20T02:57:00;98065.69;;;5.10;100.00
2785;BME280;57944;48.722;9.316;2023-12-20T02:59:30;98071.09;;;5.15;100.00
2785;BME280;57944;48.722;9.316;2023-12-20T03:02:01;98070.47;;;5.22;100.00
2785;BME280;57944;48.722;9.316;2023-12-20T03:04:32;98066.50;;;5.19;100.00
2785;BME280;57944;48.722;9.316;2023-12-20T03:07:05;98069.34;;;5.16;100.00
2785;BME280;57944;48.722;9.316;2023-12-20T03:09:36;98076.13;;;5.15;100.00
2785;BME280;57944;48.722;9.316;2023-12-20T03:12:26;98078.31;;;5.02;100.00
2785;BME280;57944;48.722;9.316;2023-12-20T03:14:57;98077.84;;;5.15;100.00
2785;BME280;57944;48.722;9.316;2023-12-20T03:17:27;98078.53;;;5.33;100.00
2785;BME280;57944;48.722;9.316;2023-12-20T03:19:58;98085.47;;;5.31;100.00
2785;BME280;57944;48.722;9.316;2023-12-20T03:22:31;98092.22;;;5.14;100.00
2785;BME280;57944;48.722;9.316;2023-12-20T03:25:03;98089.53;;;5.08;100.00
2785;BME280;57944;48.722;9.316;2023-12-20T03:27:33;98081.66;;;5.19;100.00
2785;BME280;57944;48.722;9.316;2023-12-20T03:30:05;98090.31;;;5.08;100.00
2785;BME280;57944;48.722;9.316;2023-12-20T03:32:37;98083.53;;;5.09;100.00
2785;BME280;57944;48.722;9.316;2023-12-20T03:35:08;98086.53;;;5.21;100.00
2785;BME280;57944;48.722;9.316;2023-12-20T03:37:41;98086.25;;;5.24;100.00
2785;BME280;57944;48.722;9.316;2023-12-20T03:40:12;98091.31;;;5.24;100.00
2785;BME280;57944;48.722;9.316;2023-12-20T03:42:42;98086.53;;;5.21;100.00
2785;BME280;57944;48.722;9.316;2023-12-20T03:45:13;98093.50;;;5.19;100.00
2785;BME280;57944;48.722;9.316;2023-12-20T03:47:44;98097.28;;;5.23;100.00
2785;BME280;57944;48.722;9.316;2023-12-20T03:50:16;98094.44;;;5.18;100.00
2785;BME280;57944;48.722;9.316;2023-12-20T03:52:49;98096.81;;;5.11;100.00
2785;BME280;57944;48.722;9.316;2023-12-20T03:55:20;98103.31;;;5.22;100.00
2785;BME280;57944;48.722;9.316;2023-12-20T03:57:50;98109.31;;;5.29;100.00
2785;BME280;57944;48.722;9.316;2023-12-20T04:00:21;98104.59;;;5.34;100.00
2785;BME280;57944;48.722;9.316;2023-12-20T04:02:52;98109.00;;;5.40;100.00
2785;BME280;57944;48.722;9.316;2023-12-20T04:05:23;98107.59;;;5.37;100.00
2785;BME280;57944;48.722;9.316;2023-12-20T04:07:56;98101.75;;;5.37;100.00
2785;BME280;57944;48.722;9.316;2023-12-20T04:10:27;98108.03;;;5.25;100.00
2785;BME280;57944;48.722;9.316;2023-12-20T04:12:57;98119.09;;;5.32;100.00
2785;BME280;57944;48.722;9.316;2023-12-20T04:15:28;98121.19;;;5.36;100.00
2785;BME280;57944;48.722;9.316;2023-12-20T04:17:59;98113.75;;;5.35;100.00
2785;BME280;57944;48.722;9.316;2023-12-20T04:20:29;98119.41;;;5.29;100.00
2785;BME280;57944;48.722;9.316;2023-12-20T04:23:03;98097.28;;;5.23;100.00
2785;BME280;57944;48.722;9.316;2023-12-20T04:25:33;98113.09;;;5.25;100.00
2785;BME280;57944;48.722;9.316;2023-12-20T04:28:04;98116.88;;;5.21;100.00
2785;BME280;57944;48.722;9.316;2023-12-20T04:30:35;98114.16;;;5.14;100.00
2785;BME280;57944;48.722;9.316;2023-12-20T04:33:06;98132.00;;;5.04;100.00
2785;BME280;57944;48.722;9.316;2023-12-20T04:35:36;98131.34;;;5.02;100.00
2785;BME280;57944;48.722;9.316;2023-12-20T04:38:11;98134.50;;;4.96;100.00
2785;BME280;57944;48.722;9.316;2023-12-20T04:40:41;98131.69;;;5.07;100.00
2785;BME280;57944;48.722;9.316;2023-12-20T04:43:12;98132.66;;;5.14;100.00
2785;BME280;57944;48.722;9.316;2023-12-20T04:45:42;98121.75;;;5.14;100.00
2785;BME280;57944;48.722;9.316;2023-12-20T04:48:13;98128.06;;;5.18;100.00
2785;BME280;57944;48.722;9.316;2023-12-20T04:50:44;98126.38;;;5.27;100.00
2785;BME280;57944;48.722;9.316;2023-12-20T04:53:17;98149.59;;;5.30;100.00
2785;BME280;57944;48.722;9.316;2023-12-20T04:55:47;98149.44;;;5.32;100.00
2785;BME280;57944;48.722;9.316;2023-12-20T04:58:18;98157.00;;;5.32;100.00
2785;BME280;57944;48.722;9.316;2023-12-20T05:00:48;98153.69;;;5.31;100.00
2785;BME280;57944;48.722;9.316;2023-12-20T05:03:20;98144.72;;;5.37;100.00
2785;BME280;57944;48.722;9.316;2023-12-20T05:05:50;98133.16;;;5.34;100.00
2785;BME280;57944;48.722;9.316;2023-12-20T05:08:23;98149.44;;;5.40;100.00
2785;BME280;57944;48.722;9.316;2023-12-20T05:10:54;98154.19;;;5.43;100.00
2785;BME280;57944;48.722;9.316;2023-12-20T05:13:25;98148.22;;;5.44;100.00
2785;BME280;57944;48.722;9.316;2023-12-20T05:16:11;98158.31;;;5.44;100.00
2785;BME280;57944;48.722;9.316;2023-12-20T05:18:42;98164.94;;;5.45;100.00
2785;BME280;57944;48.722;9.316;2023-12-20T05:21:12;98164.03;;;5.46;100.00
2785;BME280;57944;48.722;9.316;2023-12-20T05:23:45;98163.22;;;5.54;100.00
2785;BME280;57944;48.722;9.316;2023-12-20T05:26:16;98169.41;;;5.59;100.00
2785;BME280;57944;48.722;9.316;2023-12-20T05:28:46;98181.41;;;5.57;100.00
2785;BME280;57944;48.722;9.316;2023-12-20T05:31:17;98186.94;;;5.53;100.00
2785;BME280;57944;48.722;9.316;2023-12-20T05:33:48;98181.41;;;5.57;100.00
2785;BME280;57944;48.722;9.316;2023-12-20T05:36:19;98177.22;;;5.32;100.00
2785;BME280;57944;48.722;9.316;2023-12-20T05:38:52;98174.09;;;5.38;100.00
2785;BME280;57944;48.722;9.316;2023-12-20T05:41:23;98181.34;;;5.33;100.00
2785;BME280;57944;48.722;9.316;2023-12-20T05:43:53;98188.59;;;5.28;100.00
2785;BME280;57944;48.722;9.316;2023-12-20T05:46:25;98194.13;;;5.31;100.00
2785;BME280;57944;48.722;9.316;2023-12-20T05:48:56;98194.28;;;5.30;100.00
2785;BME280;57944;48.722;9.316;2023-12-20T05:51:27;98192.50;;;5.14;100.00
2785;BME280;57944;48.722;9.316;2023-12-20T05:54:00;98204.19;;;5.23;100.00
2785;BME280;57944;48.722;9.316;2023-12-20T05:56:31;98208.44;;;5.14;100.00
2785;BME280;57944;48.722;9.316;2023-12-20T05:59:02;98219.97;;;5.17;100.00
2785;BME280;57944;48.722;9.316;2023-12-20T06:01:33;98221.97;;;5.05;100.00
2785;BME280;57944;48.722;9.316;2023-12-20T06:04:04;98218.34;;;5.08;100.00
2785;BME280;57944;48.722;9.316;2023-12-20T06:06:35;98221.22;;;5.13;100.00
2785;BME280;57944;48.722;9.316;2023-12-20T06:09:13;98218.88;;;5.20;100.00
2785;BME280;57944;48.722;9.316;2023-12-20T06:11:43;98224.59;;;5.22;100.00
2785;BME280;57944;48.722;9.316;2023-12-20T06:14:14;98221.75;;;5.25;100.00
2785;BME280;57944;48.722;9.316;2023-12-20T06:16:45;98231.69;;;5.26;100.00
2785;BME280;57944;48.722;9.316;2023-12-20T06:19:16;98236.22;;;5.14;100.00
2785;BME280;57944;48.722;9.316;2023-12-20T06:21:46;98237.97;;;5.14;100.00
2785;BME280;57944;48.722;9.316;2023-12-20T06:24:20;98242.72;;;5.17;100.00
2785;BME280;57944;48.722;9.316;2023-12-20T06:26:55;98244.88;;;5.12;100.00
2785;BME280;57944;48.722;9.316;2023-12-20T06:29:26;98237.78;;;5.07;100.00
2785;BME280;57944;48.722;9.316;2023-12-20T06:31:56;98235.88;;;5.09;100.00
2785;BME280;57944;48.722;9.316;2023-12-20T06:34:27;98228.25;;;5.01;100.00
2785;BME280;57944;48.722;9.316;2023-12-20T06:36:58;98233.03;;;5.04;100.00
2785;BME280;57944;48.722;9.316;2023-12-20T06:39:31;98240.56;;;4.96;100.00
2785;BME280;57944;48.722;9.316;2023-12-20T06:42:06;98231.63;;;4.84;100.00
2785;BME280;57944;48.722;9.316;2023-12-20T06:44:37;98238.59;;;4.90;100.00
2785;BME280;57944;48.722;9.316;2023-12-20T06:47:11;98233.84;;;4.87;100.00
2785;BME280;57944;48.722;9.316;2023-12-20T06:49:42;98243.19;;;4.86;100.00
2785;BME280;57944;48.722;9.316;2023-12-20T06:52:12;98247.75;;;4.83;100.00
2785;BME280;57944;48.722;9.316;2023-12-20T06:54:46;98242.44;;;4.94;100.00
2785;BME280;57944;48.722;9.316;2023-12-20T06:57:16;98245.09;;;4.92;100.00
2785;BME280;57944;48.722;9.316;2023-12-20T06:59:47;98254.75;;;4.97;100.00
2785;BME280;57944;48.722;9.316;2023-12-20T07:02:19;98253.03;;;4.98;100.00
2785;BME280;57944;48.722;9.316;2023-12-20T07:04:50;98258.06;;;4.98;100.00
2785;BME280;57944;48.722;9.316;2023-12-20T07:07:21;98267.22;;;4.90;100.00
2785;BME280;57944;48.722;9.316;2023-12-20T07:09:54;98268.88;;;4.82;100.00
2785;BME280;57944;48.722;9.316;2023-12-20T07:12:25;98274.97;;;4.71;100.00
2785;BME280;57944;48.722;9.316;2023-12-20T07:14:56;98277.97;;;4.75;100.00
2785;BME280;57944;48.722;9.316;2023-12-20T07:17:26;98274.44;;;4.67;100.00
2785;BME280;57944;48.722;9.316;2023-12-20T07:19:57;98286.22;;;4.77;100.00
2785;BME280;57944;48.722;9.316;2023-12-20T07:22:31;98287.19;;;4.84;100.00
2785;BME280;57944;48.722;9.316;2023-12-20T07:25:05;98293.13;;;4.75;100.00
2785;BME280;57944;48.722;9.316;2023-12-20T07:27:36;98299.47;;;4.79;100.00
2785;BME280;57944;48.722;9.316;2023-12-20T07:30:12;98287.50;;;4.81;100.00
2785;BME280;57944;48.722;9.316;2023-12-20T07:32:42;98285.97;;;4.70;100.00
2785;BME280;57944;48.722;9.316;2023-12-20T07:35:13;98293.13;;;4.75;100.00
2785;BME280;57944;48.722;9.316;2023-12-20T07:37:44;98301.06;;;4.80;100.00
2785;BME280;57944;48.722;9.316;2023-12-20T07:40:17;98305.22;;;4.89;100.00
2785;BME280;57944;48.722;9.316;2023-12-20T07:42:48;98317.78;;;4.81;100.00
2785;BME280;57944;48.722;9.316;2023-12-20T07:45:18;98318.66;;;4.72;100.00
2785;BME280;57944;48.722;9.316;2023-12-20T07:47:49;98308.28;;;4.75;100.00
2785;BME280;57944;48.722;9.316;2023-12-20T07:50:21;98320.47;;;4.61;100.00
2785;BME280;57944;48.722;9.316;2023-12-20T07:52:52;98323.09;;;4.52;100.00
2785;BME280;57944;48.722;9.316;2023-12-20T07:55:25;98332.88;;;4.55;100.00
2785;BME280;57944;48.722;9.316;2023-12-20T07:57:55;98334.41;;;4.47;100.00
2785;BME280;57944;48.722;9.316;2023-12-20T08:00:26;98335.25;;;4.56;100.00
2785;BME280;57944;48.722;9.316;2023-12-20T08:02:57;98338.72;;;4.55;100.00
2785;BME280;57944;48.722;9.316;2023-12-20T08:05:31;98339.81;;;4.53;100.00
2785;BME280;57944;48.722;9.316;2023-12-20T08:08:01;98337.88;;;4.46;100.00
2785;BME280;57944;48.722;9.316;2023-12-20T08:10:35;98339.84;;;4.43;100.00
2785;BME280;57944;48.722;9.316;2023-12-20T08:13:05;98338.16;;;4.43;100.00
2785;BME280;57944;48.722;9.316;2023-12-20T08:15:36;98341.22;;;4.37;100.00
2785;BME280;57944;48.722;9.316;2023-12-20T08:18:07;98346.50;;;4.44;100.00
2785;BME280;57944;48.722;9.316;2023-12-20T08:20:37;98357.69;;;4.41;100.00
2785;BME280;57944;48.722;9.316;2023-12-20T08:23:08;98354.09;;;4.44;100.00
2785;BME280;57944;48.722;9.316;2023-12-20T08:25:42;98350.91;;;4.42;100.00
2785;BME280;57944;48.722;9.316;2023-12-20T08:28:12;98354.16;;;4.52;100.00
2785;BME280;57944;48.722;9.316;2023-12-20T08:30:43;98352.47;;;4.43;100.00
2785;BME280;57944;48.722;9.316;2023-12-20T08:33:14;98354.09;;;4.44;100.00
2785;BME280;57944;48.722;9.316;2023-12-20T08:35:45;98352.75;;;4.40;100.00
2785;BME280;57944;48.722;9.316;2023-12-20T08:38:16;98360.78;;;4.53;100.00
2785;BME280;57944;48.722;9.316;2023-12-20T08:40:49;98367.28;;;4.56;100.00
2785;BME280;57944;48.722;9.316;2023-12-20T08:43:20;98371.16;;;4.50;100.00
2785;BME280;57944;48.722;9.316;2023-12-20T08:45:51;98368.50;;;4.52;100.00
2785;BME280;57944;48.722;9.316;2023-12-20T08:48:21;98364.63;;;4.57;100.00
2785;BME280;57944;48.722;9.316;2023-12-20T08:50:52;98371.25;;;4.58;100.00
2785;BME280;57944;48.722;9.316;2023-12-20T08:53:23;98384.91;;;4.65;100.00
2785;BME280;57944;48.722;9.316;2023-12-20T08:55:56;98383.72;;;4.78;100.00
2785;BME280;57944;48.722;9.316;2023-12-20T08:58:28;98384.72;;;4.67;100.00
2785;BME280;57944;48.722;9.316;2023-12-20T09:00:59;98383.75;;;4.60;100.00
2785;BME280;57944;48.722;9.316;2023-12-20T09:03:30;98388.78;;;4.60;100.00
2785;BME280;57944;48.722;9.316;2023-12-20T09:06:01;98379.25;;;4.54;100.00
2785;BME280;57944;48.722;9.316;2023-12-20T09:08:31;98379.53;;;4.33;100.00
2785;BME280;57944;48.722;9.316;2023-12-20T09:11:04;98374.00;;;4.19;100.00
2785;BME280;57944;48.722;9.316;2023-12-20T09:13:36;98378.09;;;4.02;100.00
2785;BME280;57944;48.722;9.316;2023-12-20T09:16:06;98374.16;;;3.90;100.00
2785;BME280;57944;48.722;9.316;2023-12-20T09:18:37;98367.97;;;3.85;100.00
2785;BME280;57944;48.722;9.316;2023-12-20T09:21:08;98374.41;;;3.87;100.00
2785;BME280;57944;48.722;9.316;2023-12-20T09:23:38;98376.16;;;3.87;100.00
2785;BME280;57944;48.722;9.316;2023-12-20T09:26:11;98375.94;;;3.80;100.00
2785;BME280;57944;48.722;9.316;2023-12-20T09:28:42;98374.19;;;3.80;100.00
2785;BME280;57944;48.722;9.316;2023-12-20T09:31:12;98376.06;;;3.78;100.00
2785;BME280;57944;48.722;9.316;2023-12-20T09:33:43;98378.22;;;3.73;100.00
2785;BME280;57944;48.722;9.316;2023-12-20T09:36:14;98384.16;;;3.72;100.00
2785;BME280;57944;48.722;9.316;2023-12-20T09:38:45;98381.38;;;3.75;100.00
2785;BME280;57944;48.722;9.316;2023-12-20T09:41:19;98374.19;;;3.80;100.00
2785;BME280;57944;48.722;9.316;2023-12-20T09:43:51;98388.47;;;3.90;100.00
2785;BME280;57944;48.722;9.316;2023-12-20T09:46:27;98382.47;;;4.00;100.00
2785;BME280;57944;48.722;9.316;2023-12-20T09:49:00;98388.69;;;4.06;100.00
2785;BME280;57944;48.722;9.316;2023-12-20T09:51:30;98393.44;;;4.09;100.00
2785;BME280;57944;48.722;9.316;2023-12-20T09:54:03;98396.91;;;4.08;100.00
2785;BME280;57944;48.722;9.316;2023-12-20T09:56:37;98391.44;;;4.13;100.00
2785;BME280;57944;48.722;9.316;2023-12-20T09:59:08;98393.72;;;4.06;100.00
2785;BME280;57944;48.722;9.316;2023-12-20T10:01:40;98395.56;;;4.14;100.00
2785;BME280;57944;48.722;9.316;2023-12-20T10:04:13;98394.41;;;4.26;100.00
2785;BME280;57944;48.722;9.316;2023-12-20T10:06:56;98388.00;;;4.32;100.00
2785;BME280;57944;48.722;9.316;2023-12-20T10:09:31;98382.41;;;4.38;100.00
2785;BME280;57944;48.722;9.316;2023-12-20T10:12:05;98386.31;;;4.50;100.00
2785;BME280;57944;48.722;9.316;2023-12-20T10:14:37;98383.38;;;4.55;100.00
2785;BME280;57944;48.722;9.316;2023-12-20T10:17:08;98388.91;;;4.58;100.00
2785;BME280;57944;48.722;9.316;2023-12-20T10:19:39;98381.34;;;4.58;100.00
2785;BME280;57944;48.722;9.316;2023-12-20T10:22:10;98381.41;;;4.66;100.00
2785;BME280;57944;48.722;9.316;2023-12-20T10:24:42;98378.47;;;4.71;100.00
2785;BME280;57944;48.722;9.316;2023-12-20T10:27:15;98375.22;;;4.79;100.00
2785;BME280;57944;48.722;9.316;2023-12-20T10:29:48;98366.13;;;4.86;100.00
2785;BME280;57944;48.722;9.316;2023-12-20T10:32:23;98366.25;;;5.02;100.00
2785;BME280;57944;48.722;9.316;2023-12-20T10:34:55;98360.00;;;5.14;100.00
2785;BME280;57944;48.722;9.316;2023-12-20T10:37:27;98353.28;;;5.49;100.00
2785;BME280;57944;48.722;9.316;2023-12-20T10:39:59;98362.88;;;5.72;100.00
2785;BME280;57944;48.722;9.316;2023-12-20T10:42:36;98355.47;;;6.04;100.00
2785;BME280;57944;48.722;9.316;2023-12-20T10:45:09;98356.88;;;6.07;100.00
2785;BME280;57944;48.722;9.316;2023-12-20T10:47:41;98355.44;;;6.13;100.00
2785;BME280;57944;48.722;9.316;2023-12-20T10:50:12;98360.97;;;6.00;100.00
2785;BME280;57944;48.722;9.316;2023-12-20T10:52:43;98372.75;;;5.91;100.00
2785;BME280;57944;48.722;9.316;2023-12-20T10:55:14;98361.84;;;5.91;100.00
2785;BME280;57944;48.722;9.316;2023-12-20T10:57:49;98366.53;;;6.12;100.00
2785;BME280;57944;48.722;9.316;2023-12-20T11:00:21;98361.81;;;6.17;100.00
2785;BME280;57944;48.722;9.316;2023-12-20T11:02:53;98358.28;;;6.10;100.00
2785;BME280;57944;48.722;9.316;2023-12-20T11:05:33;98354.47;;;5.97;100.00
2785;BME280;57944;48.722;9.316;2023-12-20T11:08:12;98354.41;;;5.89;100.00
2785;BME280;57944;48.722;9.316;2023-12-20T11:10:49;98341.03;;;5.71;100.00
2785;BME280;57944;48.722;9.316;2023-12-20T11:13:31;98340.47;;;5.77;100.00
2785;BME280;57944;48.722;9.316;2023-12-20T11:16:03;98343.97;;;5.92;100.00
2785;BME280;57944;48.722;9.316;2023-12-20T11:18:35;98349.66;;;5.86;100.00
2785;BME280;57944;48.722;9.316;2023-12-20T11:21:06;98350.38;;;5.96;100.00
2785;BME280;57944;48.722;9.316;2023-12-20T11:23:37;98346.88;;;5.97;100.00
2785;BME280;57944;48.722;9.316;2023-12-20T11:26:07;98352.66;;;5.90;100.00
2785;BME280;57944;48.722;9.316;2023-12-20T11:28:41;98347.88;;;6.04;100.00
2785;BME280;57944;48.722;9.316;2023-12-20T11:31:14;98351.84;;;6.23;100.00
2785;BME280;57944;48.722;9.316;2023-12-20T11:33:47;98348.72;;;6.30;100.00
2785;BME280;57944;48.722;9.316;2023-12-20T11:36:19;98350.41;;;6.13;100.00
2785;BME280;57944;48.722;9.316;2023-12-20T11:38:55;98343.06;;;5.93;100.00
2785;BME280;57944;48.722;9.316;2023-12-20T11:41:27;98344.44;;;5.88;100.00
2785;BME280;57944;48.722;9.316;2023-12-20T11:44:00;98339.94;;;5.99;100.00
2785;BME280;57944;48.722;9.316;2023-12-20T11:46:32;98343.44;;;6.07;100.00
2785;BME280;57944;48.722;9.316;2023-12-20T11:49:03;98343.28;;;6.08;100.00
2785;BME280;57944;48.722;9.316;2023-12-20T11:51:34;98343.13;;;6.10;100.00
2785;BME280;57944;48.722;9.316;2023-12-20T11:54:05;98339.59;;;5.94;100.00
2785;BME280;57944;48.722;9.316;2023-12-20T11:56:36;98341.38;;;6.02;100.00
2785;BME280;57944;48.722;9.316;2023-12-20T11:59:11;98340.59;;;6.10;100.00
2785;BME280;57944;48.722;9.316;2023-12-20T12:01:50;98344.94;;;5.91;100.00
2785;BME280;57944;48.722;9.316;2023-12-20T12:04:24;98345.25;;;5.88;100.00
2785;BME280;57944;48.722;9.316;2023-12-20T12:06:54;98341.00;;;5.63;100.00
2785;BME280;57944;48.722;9.316;2023-12-20T12:09:25;98339.47;;;5.70;100.00
2785;BME280;57944;48.722;9.316;2023-12-20T12:11:56;98339.22;;;5.89;100.00
2785;BME280;57944;48.722;9.316;2023-12-20T12:14:29;98345.44;;;5.95;100.00
2785;BME280;57944;48.722;9.316;2023-12-20T12:17:00;98341.81;;;5.97;100.00
2785;BME280;57944;48.722;9.316;2023-12-20T12:19:31;98339.16;;;5.73;100.00
2785;BME280;57944;48.722;9.316;2023-12-20T12:22:05;98348.91;;;5.59;100.00
2785;BME280;57944;48.722;9.316;2023-12-20T12:24:43;98346.19;;;5.53;100.00
2785;BME280;57944;48.722;9.316;2023-12-20T12:27:14;98338.59;;;5.53;100.00
2785;BME280;57944;48.722;9.316;2023-12-20T12:30:03;98340.13;;;5.46;100.00
2785;BME280;57944;48.722;9.316;2023-12-20T12:32:35;98329.78;;;5.31;100.00
2785;BME280;57944;48.722;9.316;2023-12-20T12:35:07;98311.53;;;5.45;100.00
2785;BME280;57944;48.722;9.316;2023-12-20T12:37:39;98305.78;;;5.61;100.00
2785;BME280;57944;48.722;9.316;2023-12-20T12:40:12;98305.94;;;5.68;100.00
2785;BME280;57944;48.722;9.316;2023-12-20T12:42:44;98317.97;;;5.74;100.00
2785;BME280;57944;48.722;9.316;2023-12-20T12:45:18;98309.47;;;5.75;100.00
2785;BME280;57944;48.722;9.316;2023-12-20T12:47:48;98309.50;;;5.83;100.00
2785;BME280;57944;48.722;9.316;2023-12-20T12:50:19;98315.50;;;5.90;100.00
2785;BME280;57944;48.722;9.316;2023-12-20T12:52:50;98319.06;;;6.06;100.00
2785;BME280;57944;48.722;9.316;2023-12-20T12:55:20;98298.72;;;6.32;100.00
2785;BME280;57944;48.722;9.316;2023-12-20T12:57:51;98310.44;;;6.82;100.00
2785;BME280;57944;48.722;9.316;2023-12-20T13:00:24;98309.34;;;6.68;100.00
2785;BME280;57944;48.722;9.316;2023-12-20T13:02:55;98306.16;;;6.74;100.00
2785;BME280;57944;48.722;9.316;2023-12-20T13:05:25;98308.72;;;6.49;100.00
2785;BME280;57944;48.722;9.316;2023-12-20T13:07:56;98313.75;;;6.33;100.00
2785;BME280;57944;48.722;9.316;2023-12-20T13:10:27;98306.16;;;6.25;100.00
2785;BME280;57944;48.722;9.316;2023-12-20T13:12:58;98306.78;;;6.43;100.00
2785;BME280;57944;48.722;9.316;2023-12-20T13:15:31;98297.16;;;6.31;100.00
2785;BME280;57944;48.722;9.316;2023-12-20T13:18:02;98291.59;;;6.43;100.00
2785;BME280;57944;48.722;9.316;2023-12-20T13:20:34;98291.75;;;6.34;100.00
2785;BME280;57944;48.722;9.316;2023-12-20T13:23:06;98291.91;;;6.16;100.00
2785;BME280;57944;48.722;9.316;2023-12-20T13:25:37;98287.13;;;5.96;100.00
2785;BME280;57944;48.722;9.316;2023-12-20T13:28:08;98292.53;;;6.26;100.00
2785;BME280;57944;48.722;9.316;2023-12-20T13:30:41;98300.44;;;6.23;100.00
2785;BME280;57944;48.722;9.316;2023-12-20T13:33:12;98305.47;;;6.07;100.00